Time;durP1;ratioP1;P1;durP2;ratioP2;P2;SDS_P1;SDS_P2;PMS_P1;PMS_P2;Temp;Humidity;BMP_temperature;BMP_pressure;BME280_temperature;BME280_humidity;BME280_pressure;Samples;Min_cycle;Max_cycle;Signal;HPM_P1;HPM_P2
2022/07/13 00:01:22;;;;;;;;;;;26.00;43.40;;;;;;6250893;22;20170;-90
2022/07/13 00:03:47;;;;;;;;;;;26.00;43.40;;;;;;6253761;23;19970;-91
2022/07/13 00:06:13;;;;;;;;;;;26.00;43.40;;;;;;6250627;22;20022;-91
2022/07/13 00:08:38;;;;;;;;;;;26.00;43.50;;;;;;6252684;23;20037;-90
2022/07/13 00:11:04;;;;;;;;;;;25.90;43.70;;;;;;6254373;22;19970;-90
2022/07/13 00:13:29;;;;;;;;;;;25.80;43.90;;;;;;6250769;23;19991;-90
2022/07/13 00:15:55;;;;;;;;;;;25.80;44.30;;;;;;6251147;23;19904;-90
2022/07/13 00:18:20;;;;;;;;;;;25.60;44.40;;;;;;6249671;23;19916;-90
2022/07/13 00:20:46;;;;;;;;;;;25.60;44.50;;;;;;6223407;23;19908;-91
2022/07/13 00:23:11;;;;;;;;;;;25.50;44.60;;;;;;6248843;23;19927;-90
2022/07/13 00:25:37;;;;;;;;;;;25.50;44.90;;;;;;6248944;23;19903;-90
2022/07/13 00:28:02;;;;;;;;;;;25.50;45.00;;;;;;6223270;23;19922;-90
2022/07/13 00:30:28;;;;;;;;;;;25.50;45.10;;;;;;6248613;23;19910;-90
2022/07/13 00:32:54;;;;;;;;;;;25.40;45.30;;;;;;6249950;22;19916;-90
2022/07/13 00:35:19;;;;;;;;;;;25.40;45.30;;;;;;6248967;23;19958;-90
2022/07/13 00:37:45;;;;;;;;;;;25.30;45.40;;;;;;6250563;22;20206;-90
2022/07/13 00:40:10;;;;;;;;;;;25.30;45.40;;;;;;6252369;23;19904;-90
2022/07/13 00:42:36;;;;;;;;;;;25.30;45.40;;;;;;6223587;23;19912;-90
2022/07/13 00:45:01;;;;;;;;;;;25.30;45.40;;;;;;6249081;23;19904;-90
2022/07/13 00:47:32;;;;;;;;;;;25.30;45.70;;;;;;6250266;22;19958;-91
2022/07/13 00:49:59;;;;;;;;;;;25.30;45.90;;;;;;6223902;23;19942;-90
2022/07/13 00:52:24;;;;;;;;;;;25.30;45.90;;;;;;6223844;23;19965;-90
2022/07/13 00:54:50;;;;;;;;;;;25.30;45.80;;;;;;6249190;23;19943;-90
2022/07/13 00:57:16;;;;;;;;;;;25.30;45.70;;;;;;6223611;23;19911;-90
2022/07/13 00:59:41;;;;;;;;;;;25.40;45.60;;;;;;6222339;23;19910;-90
2022/07/13 01:02:07;;;;;;;;;;;25.40;45.60;;;;;;6247863;23;20004;-90
2022/07/13 01:04:34;;;;;;;;;;;25.40;45.90;;;;;;6248272;23;19904;-90
2022/07/13 01:06:59;;;;;;;;;;;25.30;45.90;;;;;;6250352;22;19954;-90
2022/07/13 01:09:25;;;;;;;;;;;25.30;45.80;;;;;;6250392;23;19907;-90
2022/07/13 01:11:52;;;;;;;;;;;25.20;45.80;;;;;;6248680;22;19987;-91
2022/07/13 01:14:17;;;;;;;;;;;25.20;45.80;;;;;;6248453;23;19903;-90
2022/07/13 01:16:43;;;;;;;;;;;25.20;45.80;;;;;;6248465;23;19978;-92
2022/07/13 01:19:12;;;;;;;;;;;25.20;45.90;;;;;;6222172;23;19930;-90
2022/07/13 01:21:43;;;;;;;;;;;25.20;45.90;;;;;;6249316;22;20332;-91
2022/07/13 01:24:09;;;;;;;;;;;25.20;45.90;;;;;;6222820;23;19935;-91
2022/07/13 01:26:36;;;;;;;;;;;25.20;46.10;;;;;;6225332;23;19942;-90
2022/07/13 01:29:01;;;;;;;;;;;25.20;46.10;;;;;;6224813;23;19942;-91
2022/07/13 01:31:34;;;;;;;;;;;25.20;46.20;;;;;;6248364;23;20309;-91
2022/07/13 01:34:00;;;;;;;;;;;25.10;46.20;;;;;;6249931;23;19912;-90
2022/07/13 01:36:25;;;;;;;;;;;25.10;46.30;;;;;;6197925;23;19915;-91
2022/07/13 01:38:51;;;;;;;;;;;25.10;46.30;;;;;;6223697;23;19912;-91
2022/07/13 01:41:17;;;;;;;;;;;25.10;46.20;;;;;;6248227;23;19907;-91
2022/07/13 01:43:43;;;;;;;;;;;25.10;46.20;;;;;;6249531;23;19919;-90
2022/07/13 01:46:09;;;;;;;;;;;25.20;46.40;;;;;;6223543;23;19903;-91
2022/07/13 01:48:35;;;;;;;;;;;25.20;46.40;;;;;;6222403;23;20312;-91
2022/07/13 01:51:00;;;;;;;;;;;25.20;46.50;;;;;;6247223;23;19908;-92
2022/07/13 01:53:26;;;;;;;;;;;25.10;46.70;;;;;;6222842;23;20327;-91
2022/07/13 01:55:51;;;;;;;;;;;25.20;46.70;;;;;;6249521;23;19914;-91
2022/07/13 01:58:17;;;;;;;;;;;25.20;47.00;;;;;;6248284;22;19919;-92
2022/07/13 02:00:43;;;;;;;;;;;25.20;47.00;;;;;;6250941;23;19986;-91
2022/07/13 02:03:08;;;;;;;;;;;25.20;47.20;;;;;;6248169;23;19904;-91
2022/07/13 02:05:34;;;;;;;;;;;25.20;47.30;;;;;;6248432;23;19908;-91
2022/07/13 02:07:59;;;;;;;;;;;25.20;47.20;;;;;;6248658;23;19911;-92
2022/07/13 02:10:37;;;;;;;;;;;25.20;47.10;;;;;;6248867;23;19908;-91
2022/07/13 02:13:07;;;;;;;;;;;25.30;46.90;;;;;;6247591;23;19982;-91
2022/07/13 02:15:32;;;;;;;;;;;25.30;46.80;;;;;;6223147;23;19915;-91
2022/07/13 02:17:58;;;;;;;;;;;25.30;46.90;;;;;;6248601;23;19904;-90
2022/07/13 02:20:23;;;;;;;;;;;25.30;46.90;;;;;;6248038;23;20236;-89
2022/07/13 02:22:49;;;;;;;;;;;25.30;46.90;;;;;;6254506;23;19939;-89
2022/07/13 02:25:15;;;;;;;;;;;25.30;46.90;;;;;;6226472;22;20214;-91
2022/07/13 02:27:40;;;;;;;;;;;25.20;46.90;;;;;;6251712;23;19911;-91
2022/07/13 02:30:06;;;;;;;;;;;25.30;46.90;;;;;;6223210;22;20297;-90
2022/07/13 02:32:32;;;;;;;;;;;25.30;46.80;;;;;;6222420;23;19908;-91
2022/07/13 02:34:57;;;;;;;;;;;25.30;46.80;;;;;;6249419;23;19953;-91
2022/07/13 02:37:23;;;;;;;;;;;25.30;46.80;;;;;;6248976;22;19934;-90
2022/07/13 02:39:51;;;;;;;;;;;25.30;46.80;;;;;;6247792;23;19942;-90
2022/07/13 02:42:17;;;;;;;;;;;25.30;46.80;;;;;;6223285;23;20224;-91
2022/07/13 02:44:42;;;;;;;;;;;25.30;46.80;;;;;;6248066;23;19978;-91
2022/07/13 02:47:08;;;;;;;;;;;25.20;46.80;;;;;;6247780;23;19922;-91
2022/07/13 02:49:33;;;;;;;;;;;25.20;46.80;;;;;;6248623;23;19904;-91
2022/07/13 02:51:58;;;;;;;;;;;25.20;46.70;;;;;;6248167;23;19915;-90
2022/07/13 02:54:24;;;;;;;;;;;25.20;46.80;;;;;;6248624;23;19915;-91
2022/07/13 02:56:49;;;;;;;;;;;25.20;46.90;;;;;;6249762;23;19912;-91
2022/07/13 02:59:15;;;;;;;;;;;25.20;46.90;;;;;;6249854;23;19926;-91
2022/07/13 03:01:40;;;;;;;;;;;25.20;47.00;;;;;;6248629;23;20232;-90
2022/07/13 03:04:06;;;;;;;;;;;25.20;47.00;;;;;;6248147;23;19903;-90
2022/07/13 03:06:32;;;;;;;;;;;25.30;46.90;;;;;;6248821;23;19915;-90
2022/07/13 03:08:57;;;;;;;;;;;25.30;46.80;;;;;;6250436;23;19946;-91
2022/07/13 03:11:23;;;;;;;;;;;25.30;46.70;;;;;;6249730;23;19919;-91
2022/07/13 03:13:48;;;;;;;;;;;25.40;46.60;;;;;;6248713;23;20018;-91
2022/07/13 03:16:14;;;;;;;;;;;25.40;46.40;;;;;;6249099;23;20220;-91
2022/07/13 03:18:39;;;;;;;;;;;25.40;46.50;;;;;;6250567;23;19949;-91
2022/07/13 03:21:08;;;;;;;;;;;25.40;46.50;;;;;;6248412;23;19915;-91
2022/07/13 03:23:34;;;;;;;;;;;25.40;46.50;;;;;;6249267;23;20305;-91
2022/07/13 03:26:00;;;;;;;;;;;25.40;46.50;;;;;;6223232;23;19904;-91
2022/07/13 03:28:25;;;;;;;;;;;25.40;46.50;;;;;;6251100;23;19915;-91
2022/07/13 03:30:51;;;;;;;;;;;25.40;46.50;;;;;;6248608;23;19953;-91
2022/07/13 03:33:16;;;;;;;;;;;25.40;46.60;;;;;;6249590;23;19918;-90
2022/07/13 03:35:42;;;;;;;;;;;25.40;46.50;;;;;;6250237;23;19919;-90
2022/07/13 03:41:12;;;;;;;;;;;25.40;46.40;;;;;;6250157;23;20268;-91
2022/07/13 03:43:37;;;;;;;;;;;25.40;46.30;;;;;;6248937;23;19892;-90
2022/07/13 03:46:03;;;;;;;;;;;25.40;46.30;;;;;;6248233;23;19912;-90
2022/07/13 03:48:29;;;;;;;;;;;25.50;46.20;;;;;;6249660;23;19940;-91
2022/07/13 03:50:54;;;;;;;;;;;25.50;46.20;;;;;;6250645;23;20224;-90
2022/07/13 03:53:20;;;;;;;;;;;25.40;46.10;;;;;;6251486;22;20280;-91
2022/07/13 03:55:45;;;;;;;;;;;25.50;46.10;;;;;;6250602;23;19911;-90
2022/07/13 03:58:11;;;;;;;;;;;25.50;46.00;;;;;;6248288;23;19911;-91
2022/07/13 04:00:37;;;;;;;;;;;25.50;46.00;;;;;;6225353;23;19908;-91
2022/07/13 04:03:02;;;;;;;;;;;25.60;45.90;;;;;;6251209;22;19950;-91
2022/07/13 04:05:28;;;;;;;;;;;25.60;45.90;;;;;;6223748;23;19970;-91
2022/07/13 04:07:53;;;;;;;;;;;25.60;45.90;;;;;;6247862;23;19918;-90
2022/07/13 04:10:19;;;;;;;;;;;25.50;45.90;;;;;;6253838;23;20389;-90
2022/07/13 04:12:45;;;;;;;;;;;25.50;45.90;;;;;;6223748;23;19919;-91
2022/07/13 04:15:11;;;;;;;;;;;25.60;45.90;;;;;;6250612;23;20034;-91
2022/07/13 04:17:36;;;;;;;;;;;25.70;45.80;;;;;;6223471;23;19911;-90
2022/07/13 04:20:02;;;;;;;;;;;25.60;45.80;;;;;;6249412;23;19979;-90
2022/07/13 04:22:30;;;;;;;;;;;25.70;45.80;;;;;;6224858;23;22423;-90
2022/07/13 04:24:55;;;;;;;;;;;25.70;45.90;;;;;;6247541;23;19908;-90
2022/07/13 04:27:21;;;;;;;;;;;25.70;45.90;;;;;;6249968;23;19927;-90
2022/07/13 04:29:46;;;;;;;;;;;25.60;46.00;;;;;;6222870;23;19915;-91
2022/07/13 04:32:12;;;;;;;;;;;25.60;46.30;;;;;;6224086;22;19908;-90
2022/07/13 04:34:37;;;;;;;;;;;25.60;46.20;;;;;;6249648;23;19926;-90
2022/07/13 04:37:03;;;;;;;;;;;25.60;46.40;;;;;;6249526;22;19911;-90
2022/07/13 04:39:28;;;;;;;;;;;25.60;46.40;;;;;;6247708;23;19904;-89
2022/07/13 04:41:54;;;;;;;;;;;25.60;46.40;;;;;;6222587;23;19911;-90
2022/07/13 04:44:20;;;;;;;;;;;25.60;46.40;;;;;;6223496;23;19919;-90
2022/07/13 04:46:45;;;;;;;;;;;25.60;46.60;;;;;;6248829;23;19920;-90
2022/07/13 04:49:11;;;;;;;;;;;25.60;46.50;;;;;;6222721;23;20428;-90
2022/07/13 04:51:42;;;;;;;;;;;25.70;46.50;;;;;;6249286;23;20309;-90
2022/07/13 04:54:08;;;;;;;;;;;25.80;46.30;;;;;;6223621;23;19911;-89
2022/07/13 04:56:33;;;;;;;;;;;25.90;46.20;;;;;;6249510;23;19926;-90
2022/07/13 04:58:59;;;;;;;;;;;26.00;46.10;;;;;;6221760;23;19939;-90
2022/07/13 05:01:24;;;;;;;;;;;26.10;46.00;;;;;;6248255;23;19907;-90
2022/07/13 05:03:50;;;;;;;;;;;26.20;45.80;;;;;;6250577;23;19915;-90
2022/07/13 05:06:15;;;;;;;;;;;26.30;45.70;;;;;;6250049;23;20235;-91
2022/07/13 05:08:41;;;;;;;;;;;26.40;45.60;;;;;;6223101;23;20003;-90
2022/07/13 05:11:08;;;;;;;;;;;26.50;45.40;;;;;;6248876;23;19910;-90
2022/07/13 05:13:34;;;;;;;;;;;26.50;45.40;;;;;;6248260;23;20305;-90
2022/07/13 05:15:59;;;;;;;;;;;26.60;45.30;;;;;;6222959;23;19934;-90
2022/07/13 05:18:25;;;;;;;;;;;26.70;45.30;;;;;;6223240;23;19915;-90
2022/07/13 05:20:50;;;;;;;;;;;26.70;45.20;;;;;;6249771;23;19979;-90
2022/07/13 05:23:16;;;;;;;;;;;26.80;45.10;;;;;;6247572;23;19923;-90
2022/07/13 05:25:41;;;;;;;;;;;26.90;45.00;;;;;;6247461;23;19941;-90
2022/07/13 05:28:07;;;;;;;;;;;27.00;44.80;;;;;;6247880;23;19915;-90
2022/07/13 05:30:32;;;;;;;;;;;27.00;44.70;;;;;;6247733;23;19903;-90
2022/07/13 05:32:57;;;;;;;;;;;27.10;44.60;;;;;;6249416;22;20220;-90
2022/07/13 05:35:23;;;;;;;;;;;27.20;44.50;;;;;;6248229;23;19982;-90
2022/07/13 05:37:48;;;;;;;;;;;27.20;44.40;;;;;;6248122;23;19919;-90
2022/07/13 05:40:14;;;;;;;;;;;27.20;44.30;;;;;;6250263;23;19904;-90
2022/07/13 05:42:39;;;;;;;;;;;27.20;44.30;;;;;;6249152;22;20228;-90
2022/07/13 05:45:05;;;;;;;;;;;27.30;44.20;;;;;;6220784;23;19908;-90
2022/07/13 05:47:31;;;;;;;;;;;27.40;44.00;;;;;;6249905;22;19973;-91
2022/07/13 05:49:56;;;;;;;;;;;27.60;43.90;;;;;;6223249;23;19978;-91
2022/07/13 05:52:22;;;;;;;;;;;27.80;43.50;;;;;;6248722;23;20220;-92
2022/07/13 05:54:47;;;;;;;;;;;27.90;43.20;;;;;;6247616;23;19914;-91
2022/07/13 05:57:13;;;;;;;;;;;28.10;42.90;;;;;;6243266;23;20013;-92
2022/07/13 05:59:38;;;;;;;;;;;28.20;42.80;;;;;;6246030;23;20317;-90
2022/07/13 06:02:04;;;;;;;;;;;28.30;42.50;;;;;;6245524;23;19907;-90
2022/07/13 06:04:29;;;;;;;;;;;28.40;42.10;;;;;;6246468;23;19892;-90
2022/07/13 06:06:54;;;;;;;;;;;28.50;42.00;;;;;;6248683;23;19922;-91
2022/07/13 06:09:20;;;;;;;;;;;28.60;42.00;;;;;;6248428;22;19954;-90
2022/07/13 06:11:46;;;;;;;;;;;28.70;41.90;;;;;;6246831;23;19931;-91
2022/07/13 06:14:12;;;;;;;;;;;28.80;41.70;;;;;;6246677;23;19919;-90
2022/07/13 06:16:38;;;;;;;;;;;28.90;41.30;;;;;;6219848;23;19904;-90
2022/07/13 06:19:04;;;;;;;;;;;29.00;41.10;;;;;;6221805;23;19911;-90
2022/07/13 06:21:29;;;;;;;;;;;29.10;40.80;;;;;;6220818;23;20324;-90
2022/07/13 06:23:55;;;;;;;;;;;29.20;39.80;;;;;;6247218;23;20296;-92
2022/07/13 06:26:20;;;;;;;;;;;29.30;39.20;;;;;;6248679;23;19927;-92
2022/07/13 06:28:46;;;;;;;;;;;29.30;38.70;;;;;;6246398;23;20225;-91
2022/07/13 06:31:11;;;;;;;;;;;29.50;38.40;;;;;;6246252;23;20213;-91
2022/07/13 06:33:37;;;;;;;;;;;29.60;38.30;;;;;;6247455;23;19922;-92
2022/07/13 06:36:02;;;;;;;;;;;29.80;38.10;;;;;;6248655;23;19952;-89
2022/07/13 06:38:28;;;;;;;;;;;30.00;38.10;;;;;;6253467;23;19912;-91
2022/07/13 06:40:53;;;;;;;;;;;30.20;38.00;;;;;;6250264;23;19919;-91
2022/07/13 06:43:19;;;;;;;;;;;30.40;37.30;;;;;;6249721;23;20309;-90
2022/07/13 06:45:44;;;;;;;;;;;30.80;37.30;;;;;;6250351;23;20260;-91
2022/07/13 06:48:10;;;;;;;;;;;31.10;37.10;;;;;;6248571;23;20316;-91
2022/07/13 06:50:35;;;;;;;;;;;31.40;36.80;;;;;;6248263;23;19904;-91
2022/07/13 06:53:02;;;;;;;;;;;31.80;36.50;;;;;;6249896;23;19918;-91
2022/07/13 06:55:28;;;;;;;;;;;32.00;36.10;;;;;;6249101;23;19931;-92
2022/07/13 06:57:55;;;;;;;;;;;32.30;35.90;;;;;;6223802;23;20190;-90
2022/07/13 07:00:20;;;;;;;;;;;32.50;35.40;;;;;;6250093;23;19931;-90
2022/07/13 07:02:45;;;;;;;;;;;32.70;34.80;;;;;;6250253;23;20232;-90
2022/07/13 07:05:11;;;;;;;;;;;32.80;34.50;;;;;;6248056;23;19915;-91
2022/07/13 07:07:37;;;;;;;;;;;33.10;34.10;;;;;;6222950;23;20642;-90
2022/07/13 07:10:03;;;;;;;;;;;33.30;33.20;;;;;;6222905;23;20543;-90
2022/07/13 07:12:28;;;;;;;;;;;33.50;32.80;;;;;;6250621;22;19946;-90
2022/07/13 07:14:54;;;;;;;;;;;33.70;32.70;;;;;;6246864;23;19907;-90
2022/07/13 07:17:19;;;;;;;;;;;34.00;32.70;;;;;;6222808;23;19982;-90
2022/07/13 07:19:46;;;;;;;;;;;34.30;32.00;;;;;;6249022;23;19911;-90
2022/07/13 07:22:12;;;;;;;;;;;34.50;31.80;;;;;;6248524;22;19918;-91
2022/07/13 07:24:38;;;;;;;;;;;34.80;31.40;;;;;;6248824;23;20479;-90
2022/07/13 07:27:07;;;;;;;;;;;35.00;31.10;;;;;;6224163;23;19912;-90
2022/07/13 07:29:36;;;;;;;;;;;35.30;30.90;;;;;;6248320;23;19947;-90
2022/07/13 07:32:01;;;;;;;;;;;35.50;30.00;;;;;;6222995;22;19911;-90
2022/07/13 07:34:27;;;;;;;;;;;35.80;29.70;;;;;;6248754;23;19916;-90
2022/07/13 07:36:53;;;;;;;;;;;36.00;29.40;;;;;;6249395;23;19979;-90
2022/07/13 07:39:18;;;;;;;;;;;36.10;28.20;;;;;;6247195;23;19903;-90
2022/07/13 07:41:44;;;;;;;;;;;36.10;27.10;;;;;;6248813;23;19915;-90
2022/07/13 07:44:10;;;;;;;;;;;36.00;27.00;;;;;;6247165;23;19911;-90
2022/07/13 07:46:36;;;;;;;;;;;35.90;26.40;;;;;;6249745;23;20033;-91
2022/07/13 07:49:03;;;;;;;;;;;35.80;26.50;;;;;;6244539;23;19923;-90
2022/07/13 07:51:29;;;;;;;;;;;35.70;25.90;;;;;;6246718;23;19907;-90
2022/07/13 07:53:55;;;;;;;;;;;35.70;26.10;;;;;;6220647;23;19911;-90
2022/07/13 07:56:20;;;;;;;;;;;35.60;26.10;;;;;;6245092;23;19915;-88
2022/07/13 07:58:45;;;;;;;;;;;35.60;26.30;;;;;;6244784;23;19942;-90
2022/07/13 08:01:12;;;;;;;;;;;35.80;26.50;;;;;;6248134;23;19922;-90
2022/07/13 08:03:38;;;;;;;;;;;35.80;26.40;;;;;;6221371;23;19908;-89
2022/07/13 08:06:03;;;;;;;;;;;36.00;26.40;;;;;;6248635;23;19997;-90
2022/07/13 08:08:29;;;;;;;;;;;36.10;26.20;;;;;;6219773;23;19922;-90
2022/07/13 08:10:54;;;;;;;;;;;36.20;26.10;;;;;;6247176;23;19990;-90
2022/07/13 08:13:20;;;;;;;;;;;36.30;26.10;;;;;;6247414;22;19957;-90
2022/07/13 08:15:46;;;;;;;;;;;36.40;26.10;;;;;;6248017;23;19912;-90
2022/07/13 08:18:11;;;;;;;;;;;36.50;26.40;;;;;;6246115;23;19918;-91
2022/07/13 08:20:37;;;;;;;;;;;36.70;26.20;;;;;;6245893;23;20270;-91
2022/07/13 08:23:02;;;;;;;;;;;36.90;25.90;;;;;;6248077;22;19915;-91
2022/07/13 08:25:27;;;;;;;;;;;37.10;25.80;;;;;;6220439;23;19916;-91
2022/07/13 08:27:53;;;;;;;;;;;37.30;25.80;;;;;;6247578;22;19947;-91
2022/07/13 08:30:20;;;;;;;;;;;37.30;25.60;;;;;;6248458;23;19990;-91
2022/07/13 08:32:48;;;;;;;;;;;37.30;25.60;;;;;;6245687;23;19947;-91
2022/07/13 08:40:42;;;;;;;;;;;37.30;25.70;;;;;;6247468;23;19919;-90
2022/07/13 08:43:09;;;;;;;;;;;37.40;25.70;;;;;;6220549;23;20275;-91
2022/07/13 08:45:34;;;;;;;;;;;37.60;25.80;;;;;;6247711;23;19908;-91
2022/07/13 08:48:04;;;;;;;;;;;37.70;25.60;;;;;;6246734;22;20411;-90
2022/07/13 08:50:31;;;;;;;;;;;37.80;25.70;;;;;;6219954;23;19954;-91
2022/07/13 08:52:56;;;;;;;;;;;38.00;25.60;;;;;;6247791;22;19934;-90
2022/07/13 08:55:22;;;;;;;;;;;38.00;25.40;;;;;;6219929;23;20592;-91
2022/07/13 08:57:48;;;;;;;;;;;38.00;25.10;;;;;;6245983;23;19912;-91
2022/07/13 09:00:13;;;;;;;;;;;38.00;24.90;;;;;;6245933;23;19943;-91
2022/07/13 09:02:39;;;;;;;;;;;38.00;25.10;;;;;;6220934;23;19998;-91
2022/07/13 09:05:06;;;;;;;;;;;38.10;25.10;;;;;;6247164;23;19916;-91
2022/07/13 09:07:35;;;;;;;;;;;38.10;25.00;;;;;;6248435;22;20154;-90
2022/07/13 09:10:04;;;;;;;;;;;38.10;24.90;;;;;;6221969;23;19907;-91
2022/07/13 09:12:31;;;;;;;;;;;38.10;24.90;;;;;;6221382;23;19907;-90
2022/07/13 09:14:58;;;;;;;;;;;38.00;24.90;;;;;;6247558;23;19895;-90
2022/07/13 09:17:31;;;;;;;;;;;38.00;25.10;;;;;;6219795;22;19917;-90
2022/07/13 09:20:20;;;;;;;;;;;38.20;25.30;;;;;;6246180;23;19911;-90
2022/07/13 09:22:46;;;;;;;;;;;38.40;25.30;;;;;;6227289;22;19927;-90
2022/07/13 09:25:14;;;;;;;;;;;38.80;25.30;;;;;;6219441;23;19937;-91
2022/07/13 09:27:45;;;;;;;;;;;39.50;25.20;;;;;;6244743;23;19919;-90
2022/07/13 09:30:24;;;;;;;;;;;40.30;25.00;;;;;;6219204;23;19990;-91
2022/07/13 09:32:53;;;;;;;;;;;41.20;23.40;;;;;;6246389;22;19915;-91
2022/07/13 09:35:20;;;;;;;;;;;41.90;22.30;;;;;;6219521;23;19911;-91
2022/07/13 09:37:46;;;;;;;;;;;42.70;21.60;;;;;;6219378;23;19907;-92
2022/07/13 09:40:14;;;;;;;;;;;43.40;21.20;;;;;;6220250;23;19907;-91
2022/07/13 09:42:41;;;;;;;;;;;44.10;20.70;;;;;;6220324;23;19908;-90
2022/07/13 09:47:53;;;;;;;;;;;45.30;19.50;;;;;;6248459;22;19961;-92
2022/07/13 09:50:36;;;;;;;;;;;45.80;19.00;;;;;;6221291;23;19987;-91
2022/07/13 09:53:02;;;;;;;;;;;46.30;18.20;;;;;;6220587;23;19912;-91
2022/07/13 09:55:29;;;;;;;;;;;46.70;17.90;;;;;;6247709;23;19907;-91
2022/07/13 09:57:56;;;;;;;;;;;46.90;17.40;;;;;;6221962;23;20852;-92
2022/07/13 10:00:24;;;;;;;;;;;47.10;17.20;;;;;;6221521;23;19923;-92
2022/07/13 10:02:50;;;;;;;;;;;47.20;17.20;;;;;;6247543;22;19998;-94
2022/07/13 10:05:18;;;;;;;;;;;47.30;17.00;;;;;;6250131;23;19912;-92
2022/07/13 10:07:44;;;;;;;;;;;47.40;16.80;;;;;;6248144;22;19912;-92
2022/07/13 10:10:17;;;;;;;;;;;47.30;16.80;;;;;;6219177;23;19919;-92
2022/07/13 10:12:43;;;;;;;;;;;47.30;16.50;;;;;;6223346;23;19938;-92
2022/07/13 10:15:09;;;;;;;;;;;47.20;16.40;;;;;;6223334;23;19947;-92
2022/07/13 10:17:35;;;;;;;;;;;47.00;16.60;;;;;;6250030;22;19918;-92
2022/07/13 10:20:11;;;;;;;;;;;47.00;16.90;;;;;;6249567;23;19982;-92
2022/07/13 10:22:42;;;;;;;;;;;47.40;17.10;;;;;;6248875;22;19946;-92
2022/07/13 10:25:15;;;;;;;;;;;47.90;17.00;;;;;;6221436;23;19962;-92
2022/07/13 10:27:41;;;;;;;;;;;48.50;16.90;;;;;;6248607;22;19933;-91
2022/07/13 10:30:09;;;;;;;;;;;48.70;16.50;;;;;;6246931;23;19908;-91
2022/07/13 10:32:36;;;;;;;;;;;48.60;16.40;;;;;;6250496;22;20544;-92
2022/07/13 10:35:01;;;;;;;;;;;48.20;16.30;;;;;;6222165;23;19915;-92
2022/07/13 10:37:27;;;;;;;;;;;47.80;16.30;;;;;;6222364;23;19915;-92
2022/07/13 10:40:08;;;;;;;;;;;48.00;16.50;;;;;;6253677;23;19907;-92
2022/07/13 10:43:06;;;;;;;;;;;48.30;16.20;;;;;;6224068;23;19911;-91
2022/07/13 10:45:38;;;;;;;;;;;48.60;15.70;;;;;;6139795;23;20000;-92
2022/07/13 10:48:16;;;;;;;;;;;48.70;15.40;;;;;;6220634;23;19990;-91
2022/07/13 10:50:45;;;;;;;;;;;48.90;15.40;;;;;;6221389;23;19950;-92
2022/07/13 10:53:15;;;;;;;;;;;49.10;15.40;;;;;;6220663;23;20336;-91
2022/07/13 10:55:47;;;;;;;;;;;49.30;15.30;;;;;;6246402;23;19907;-93
2022/07/13 10:58:31;;;;;;;;;;;49.50;15.50;;;;;;6248207;22;19960;-91
2022/07/13 11:00:56;;;;;;;;;;;49.70;15.30;;;;;;6247142;23;19908;-92
2022/07/13 11:03:23;;;;;;;;;;;50.00;15.20;;;;;;6247501;22;20225;-92
2022/07/13 11:06:05;;;;;;;;;;;50.30;15.20;;;;;;6220409;23;19912;-93
2022/07/13 11:08:31;;;;;;;;;;;50.50;15.20;;;;;;6219524;23;19916;-91
2022/07/13 11:11:13;;;;;;;;;;;50.70;14.70;;;;;;6246088;23;20317;-91
2022/07/13 11:13:39;;;;;;;;;;;50.60;14.40;;;;;;6247022;22;19911;-91
2022/07/13 11:16:06;;;;;;;;;;;50.50;14.70;;;;;;6222361;23;19911;-91
2022/07/13 11:18:32;;;;;;;;;;;50.70;14.90;;;;;;6219715;23;19911;-91
2022/07/13 11:20:58;;;;;;;;;;;50.90;14.60;;;;;;6220172;23;20037;-92
2022/07/13 11:26:46;;;;;;;;;;;50.70;14.30;;;;;;6245541;23;19914;-91
2022/07/13 11:29:15;;;;;;;;;;;50.60;14.30;;;;;;6218367;23;19912;-93
2022/07/13 11:31:41;;;;;;;;;;;50.70;14.20;;;;;;6219344;23;19908;-90
2022/07/13 11:34:07;;;;;;;;;;;50.70;14.20;;;;;;6245270;23;19933;-92
2022/07/13 11:36:32;;;;;;;;;;;50.50;14.20;;;;;;6245859;23;19973;-92
2022/07/13 11:38:58;;;;;;;;;;;50.70;14.40;;;;;;6245904;23;19912;-92
2022/07/13 11:41:24;;;;;;;;;;;50.70;14.30;;;;;;6221447;23;19908;-93
2022/07/13 11:43:50;;;;;;;;;;;50.90;14.30;;;;;;6248999;23;19908;-92
2022/07/13 11:46:26;;;;;;;;;;;50.90;14.40;;;;;;6247812;23;19916;-92
2022/07/13 11:49:02;;;;;;;;;;;51.00;14.10;;;;;;6246242;22;19915;-92
2022/07/13 11:51:27;;;;;;;;;;;50.70;14.10;;;;;;6247141;23;20631;-92
2022/07/13 11:53:53;;;;;;;;;;;50.40;14.30;;;;;;6247754;22;19908;-91
2022/07/13 11:56:18;;;;;;;;;;;50.10;14.30;;;;;;6244930;23;19914;-92
2022/07/13 11:58:45;;;;;;;;;;;49.50;14.40;;;;;;6244105;23;19946;-92
2022/07/13 12:01:12;;;;;;;;;;;49.30;14.60;;;;;;6219036;23;20313;-92
2022/07/13 12:03:37;;;;;;;;;;;49.30;14.60;;;;;;6219656;23;19918;-92
2022/07/13 12:06:05;;;;;;;;;;;49.30;14.60;;;;;;6246396;23;19986;-92
2022/07/13 12:08:33;;;;;;;;;;;49.60;14.50;;;;;;6245446;22;20652;-92
2022/07/13 12:10:59;;;;;;;;;;;49.70;14.60;;;;;;6219681;23;19947;-92
2022/07/13 12:13:24;;;;;;;;;;;49.80;14.20;;;;;;6247901;23;20316;-91
2022/07/13 12:15:50;;;;;;;;;;;49.70;14.20;;;;;;6244998;23;19908;-92
2022/07/13 12:18:17;;;;;;;;;;;49.80;14.20;;;;;;6218770;23;19923;-91
2022/07/13 12:20:42;;;;;;;;;;;49.80;14.30;;;;;;6244456;23;19915;-92
2022/07/13 12:23:08;;;;;;;;;;;49.80;14.20;;;;;;6219450;23;19915;-92
2022/07/13 12:25:35;;;;;;;;;;;49.90;14.20;;;;;;6220239;23;19931;-92
2022/07/13 12:28:02;;;;;;;;;;;49.70;14.20;;;;;;6218258;23;19915;-92
2022/07/13 12:30:29;;;;;;;;;;;49.70;14.20;;;;;;6245539;23;20287;-92
2022/07/13 12:33:00;;;;;;;;;;;49.00;14.30;;;;;;6244975;23;20225;-92
2022/07/13 12:35:30;;;;;;;;;;;48.80;14.30;;;;;;6218526;23;20346;-92
2022/07/13 12:37:57;;;;;;;;;;;48.20;14.60;;;;;;6218821;23;19998;-92
2022/07/13 12:40:54;;;;;;;;;;;47.30;14.80;;;;;;6246704;23;19912;-92
2022/07/13 12:43:21;;;;;;;;;;;47.00;15.10;;;;;;6189075;23;19907;-91
2022/07/13 12:45:51;;;;;;;;;;;46.90;15.30;;;;;;6219004;23;19912;-93
2022/07/13 12:48:17;;;;;;;;;;;46.80;15.40;;;;;;6245224;22;19986;-92
2022/07/13 12:50:53;;;;;;;;;;;46.80;15.50;;;;;;6247588;23;19912;-91
2022/07/13 12:53:18;;;;;;;;;;;46.50;15.70;;;;;;6245930;23;19912;-92
2022/07/13 12:56:10;;;;;;;;;;;46.10;15.90;;;;;;6244847;23;19912;-92
2022/07/13 12:58:40;;;;;;;;;;;46.20;16.00;;;;;;6237629;23;20052;-92
2022/07/13 13:01:05;;;;;;;;;;;46.40;16.20;;;;;;6218605;23;19948;-92
2022/07/13 13:03:31;;;;;;;;;;;46.20;16.30;;;;;;6244076;23;20006;-92
2022/07/13 13:05:56;;;;;;;;;;;46.00;16.60;;;;;;6246418;23;19911;-92
2022/07/13 13:08:22;;;;;;;;;;;45.90;16.70;;;;;;6244301;23;19994;-92
2022/07/13 13:10:47;;;;;;;;;;;45.70;16.70;;;;;;6245431;23;19908;-92
2022/07/13 13:13:14;;;;;;;;;;;45.10;16.80;;;;;;6243224;23;19911;-91
2022/07/13 13:15:39;;;;;;;;;;;44.40;17.10;;;;;;6245527;23;19912;-92
2022/07/13 13:18:05;;;;;;;;;;;43.80;17.50;;;;;;6243030;23;19923;-90
2022/07/13 13:20:30;;;;;;;;;;;43.30;17.90;;;;;;6242191;23;19911;-90
2022/07/13 13:22:56;;;;;;;;;;;43.00;18.10;;;;;;6218150;23;19935;-90
2022/07/13 13:25:21;;;;;;;;;;;42.70;18.40;;;;;;6219021;23;20011;-90
2022/07/13 13:27:46;;;;;;;;;;;42.50;18.70;;;;;;6245434;23;19955;-90
2022/07/13 13:32:56;;;;;;;;;;;41.80;19.30;;;;;;6245775;22;19930;-91
2022/07/13 13:35:22;;;;;;;;;;;41.20;19.80;;;;;;6243719;23;20280;-90
2022/07/13 13:37:48;;;;;;;;;;;40.90;20.30;;;;;;6246423;23;19958;-90
2022/07/13 13:40:13;;;;;;;;;;;40.60;21.00;;;;;;6241734;23;20027;-91
2022/07/13 13:42:39;;;;;;;;;;;40.30;21.30;;;;;;6246085;22;20224;-91
2022/07/13 13:45:05;;;;;;;;;;;40.10;21.60;;;;;;6243229;23;20107;-89
2022/07/13 13:47:30;;;;;;;;;;;40.20;21.80;;;;;;6218100;23;19970;-90
2022/07/13 13:49:56;;;;;;;;;;;40.20;21.90;;;;;;6241764;23;19911;-89
2022/07/13 13:52:21;;;;;;;;;;;40.00;22.10;;;;;;6243061;22;19915;-91
2022/07/13 13:54:47;;;;;;;;;;;39.80;22.30;;;;;;6243410;23;19958;-90
2022/07/13 13:57:12;;;;;;;;;;;39.60;22.50;;;;;;6243873;22;19976;-90
2022/07/13 13:59:38;;;;;;;;;;;39.40;22.70;;;;;;6215489;23;19912;-90
2022/07/13 14:02:03;;;;;;;;;;;39.30;22.90;;;;;;6243177;22;19953;-90
2022/07/13 14:04:30;;;;;;;;;;;39.20;23.10;;;;;;6244877;23;19912;-90
2022/07/13 14:06:56;;;;;;;;;;;39.10;23.20;;;;;;6245698;23;20671;-90
2022/07/13 14:09:22;;;;;;;;;;;39.20;23.20;;;;;;6215588;23;19962;-90
2022/07/13 14:11:47;;;;;;;;;;;39.30;23.30;;;;;;6243652;23;19907;-91
2022/07/13 14:14:13;;;;;;;;;;;39.40;23.30;;;;;;6243222;23;19919;-90
2022/07/13 14:16:38;;;;;;;;;;;39.50;23.30;;;;;;6245367;23;19911;-91
2022/07/13 14:19:04;;;;;;;;;;;39.70;23.30;;;;;;6240832;23;20240;-90
2022/07/13 14:21:29;;;;;;;;;;;39.70;23.20;;;;;;6243667;23;19907;-91
2022/07/13 14:23:55;;;;;;;;;;;39.80;23.10;;;;;;6242415;23;19931;-91
2022/07/13 14:26:20;;;;;;;;;;;39.80;23.10;;;;;;6242881;23;19961;-91
2022/07/13 14:28:46;;;;;;;;;;;39.90;23.10;;;;;;6240852;23;19958;-91
2022/07/13 14:31:11;;;;;;;;;;;40.20;23.00;;;;;;6217534;23;20469;-91